Terminal Aerodrome Forecast
Issued by NWS Wakefield, VA

Home | Current Version | Previous Version | Text Only | Print | Product List | Glossary On
Versions: 1 2 3 4 5 6 7 8 9 10 11 12 13 14 15 16 17 18 19 20 21 22 23
000
FTUS41 KAKQ 181722
TAFORF
TAF
KORF 181722Z 1818/1918 03012G18KT P6SM BKN040 BKN060
      TEMPO 1818/1821 5SM -SHRA BKN020
     FM182100 34012KT P6SM BKN100
     FM190000 32007KT P6SM SKC=

USA.gov is the U.S. government's official web portal to all federal, state and local government web resources and services.